Decoded Metar for KCLK (CLINTON in OK, USA) (IATA:CLK) | Meteo·Mobile Aviation Weather
aviador You're here:

KCLK Decoded Metar

CLINTON in OK, USA
Report Time2019-09-21 09:15:00
UTC Time2019-09-21 09:09:16
Flight Rules vfr VFR
Wind160° at 15 kt
W.Decomp.*RWY 17: 14.3 kt HW 4.4 kt LCW
RWY 13: 13.8 kt HW 5.9 kt RCW
Visibility9999 m
Phenomena:N/A
Clouds:Scattered 075 Hf
Expected CloudBase > 400 ft AGL from Temp-Dew spread
CeilingNone
Temp21°C (ISA +9)
Dew Point20°C (94% RH)
AAT19.3°C
QNH1015 hPa
Density Alt2,936 ft
Elevation1,614 ft
Report Wrong Elevation
Raw Report
KCLK 210915Z AUTO 16015KT 10SM SCT075 21/20 A2996 RMK AO2=

Extra information for KCLK:More info

Metar Taf Metar & Taf Last 4 Metars F.Rules Stats Wind Profile Meteogram Temp Stats Airport Information Weather charts Add Link Nearby VenuesMetar ALERT Operation Metar Decoded Social comments

AIRNAV info for KCLK